createdAt,value
2022-11-24T00:01:29.851Z,64.70
2022-11-24T00:03:59.437Z,59.40
2022-11-24T00:06:29.276Z,67.00
2022-11-24T00:08:58.883Z,62.30
2022-11-24T00:11:29.646Z,61.80
2022-11-24T00:13:59.372Z,72.00
2022-11-24T00:16:30.312Z,57.00
2022-11-24T00:19:01.145Z,64.10
2022-11-24T00:21:31.204Z,57.00
2022-11-24T00:23:59.857Z,63.70
2022-11-24T00:26:36.223Z,63.80
2022-11-24T00:29:08.102Z,65.10
2022-11-24T00:31:41.568Z,62.90
2022-11-24T00:34:13.205Z,65.40
2022-11-24T00:36:42.443Z,69.00
2022-11-24T00:39:14.276Z,66.00
2022-11-24T00:41:43.673Z,64.30
2022-11-24T00:44:12.274Z,58.30
2022-11-24T00:46:40.813Z,64.90
2022-11-24T00:49:09.809Z,59.80
2022-11-24T00:51:38.913Z,58.60
2022-11-24T00:54:07.283Z,57.90
2022-11-24T00:56:35.752Z,60.10
2022-11-24T00:59:04.448Z,64.50
2022-11-24T01:01:33.069Z,61.10
2022-11-24T01:04:02.236Z,65.80
2022-11-24T01:06:32.732Z,69.90
2022-11-24T01:09:01.596Z,70.80
2022-11-24T01:11:51.706Z,62.10
2022-11-24T01:14:24.492Z,66.40
2022-11-24T01:16:53.277Z,61.00
2022-11-24T01:19:22.077Z,62.80
2022-11-24T01:21:50.683Z,59.40
2022-11-24T01:24:19.184Z,62.00
2022-11-24T01:26:47.588Z,62.40
2022-11-24T01:29:15.919Z,63.40
2022-11-24T01:31:44.390Z,59.10
2022-11-24T01:34:13.527Z,61.40
2022-11-24T01:36:41.887Z,68.40
2022-11-24T01:39:10.735Z,66.20
2022-11-24T01:41:39.603Z,60.70
2022-11-24T01:44:26.115Z,61.30
2022-11-24T01:47:15.844Z,61.50
2022-11-24T01:49:51.070Z,61.00
2022-11-24T01:52:27.419Z,63.70
2022-11-24T01:55:00.735Z,56.30
2022-11-24T01:57:43.458Z,58.90
2022-11-24T02:00:14.121Z,57.40
2022-11-24T02:02:44.527Z,59.10
2022-11-24T02:05:27.652Z,62.60
2022-11-24T02:07:59.354Z,61.10
2022-11-24T02:10:27.808Z,66.40
2022-11-24T02:12:59.135Z,67.00
2022-11-24T02:15:28.704Z,66.60
2022-11-24T02:17:59.049Z,58.70
2022-11-24T02:20:27.565Z,60.20
2022-11-24T02:23:15.617Z,61.90
2022-11-24T02:26:14.690Z,61.90
2022-11-24T02:28:43.183Z,64.50
2022-11-24T02:31:12.034Z,63.10
2022-11-24T02:33:41.048Z,59.80
2022-11-24T02:36:09.525Z,60.60
2022-11-24T02:38:38.012Z,61.60
2022-11-24T02:41:11.437Z,64.70
2022-11-24T02:43:47.227Z,62.10
2022-11-24T02:46:15.637Z,66.10
2022-11-24T02:48:44.017Z,76.00
2022-11-24T02:51:12.346Z,70.50
2022-11-24T02:53:40.713Z,67.60
2022-11-24T02:56:11.412Z,74.40
2022-11-24T02:58:40.087Z,81.80
2022-11-24T03:01:08.881Z,73.40
2022-11-24T03:03:37.633Z,73.50
2022-11-24T03:06:06.124Z,84.70
2022-11-24T03:08:34.451Z,78.70
2022-11-24T03:11:02.956Z,72.30
2022-11-24T03:13:31.333Z,75.60
2022-11-24T03:15:59.823Z,78.60
2022-11-24T03:18:28.291Z,75.50
2022-11-24T03:21:00.123Z,80.50
2022-11-24T03:23:40.370Z,78.60
2022-11-24T03:26:27.477Z,72.70
2022-11-24T03:28:57.439Z,82.90
2022-11-24T03:31:26.054Z,87.90
2022-11-24T03:33:54.449Z,82.10
2022-11-24T03:36:22.878Z,76.70
2022-11-24T03:38:51.211Z,68.10
2022-11-24T03:41:19.602Z,79.50
2022-11-24T03:43:47.963Z,66.20
2022-11-24T03:46:16.349Z,74.80
2022-11-24T03:48:44.791Z,71.60
2022-11-24T03:51:13.192Z,65.30
2022-11-24T03:53:41.632Z,66.60
2022-11-24T03:56:09.982Z,68.10
2022-11-24T03:58:38.335Z,76.50
2022-11-24T04:01:06.661Z,66.40
2022-11-24T04:03:35.026Z,74.00
2022-11-24T04:06:03.420Z,70.40
2022-11-24T04:08:31.777Z,73.60
2022-11-24T04:11:00.155Z,70.70
2022-11-24T04:13:28.819Z,69.90
2022-11-24T04:15:57.220Z,73.00
2022-11-24T04:18:25.607Z,67.50
2022-11-24T04:20:54.011Z,60.20
2022-11-24T04:23:22.490Z,65.20
2022-11-24T04:25:50.791Z,64.20
2022-11-24T04:28:19.180Z,58.00
2022-11-24T04:30:48.626Z,62.50
2022-11-24T04:33:16.933Z,64.50
2022-11-24T04:35:45.337Z,63.60
2022-11-24T04:38:13.615Z,70.10
2022-11-24T04:41:06.265Z,65.50
2022-11-24T04:43:40.235Z,64.20
2022-11-24T04:46:11.580Z,68.80
2022-11-24T04:48:40.028Z,67.90
2022-11-24T04:51:08.361Z,61.80
2022-11-24T04:53:36.759Z,58.60
2022-11-24T04:56:06.503Z,64.70
2022-11-24T04:58:35.152Z,54.00
2022-11-24T05:01:07.681Z,62.80
2022-11-24T05:03:37.104Z,60.10
2022-11-24T05:06:05.854Z,57.10
2022-11-24T05:08:34.124Z,58.60
2022-11-24T05:11:06.665Z,66.40
2022-11-24T05:13:35.028Z,76.00
2022-11-24T05:16:03.547Z,69.30
2022-11-24T05:18:32.005Z,70.40
2022-11-24T05:21:00.606Z,68.70
2022-11-24T05:23:28.867Z,70.60
2022-11-24T05:26:01.616Z,75.30
2022-11-24T05:28:30.404Z,76.30
2022-11-24T05:31:00.788Z,67.30
2022-11-24T05:33:30.228Z,72.80
2022-11-24T05:36:02.948Z,69.90
2022-11-24T05:38:32.250Z,71.80
2022-11-24T05:41:02.233Z,73.50
2022-11-24T05:43:30.536Z,72.40
2022-11-24T05:46:00.473Z,69.90
2022-11-24T05:48:28.897Z,75.10
2022-11-24T05:50:58.558Z,65.50
2022-11-24T05:53:29.425Z,69.00
2022-11-24T05:55:57.917Z,62.20
2022-11-24T05:58:26.140Z,60.80
2022-11-24T06:00:54.367Z,58.80
2022-11-24T06:03:22.659Z,60.80
2022-11-24T06:05:50.984Z,62.20
2022-11-24T06:08:19.303Z,63.70
2022-11-24T06:10:47.714Z,73.60
2022-11-24T06:13:15.983Z,64.80
2022-11-24T06:15:44.472Z,68.60
2022-11-24T06:18:12.810Z,66.40
2022-11-24T06:20:42.233Z,66.10
2022-11-24T06:23:14.405Z,69.90
2022-11-24T06:25:46.133Z,63.90
2022-11-24T06:28:17.016Z,65.50
2022-11-24T06:30:45.908Z,65.80
2022-11-24T06:33:14.445Z,65.30
2022-11-24T06:35:42.916Z,71.80
2022-11-24T06:38:11.449Z,70.20
2022-11-24T06:40:39.814Z,70.40
2022-11-24T06:43:08.559Z,77.30
2022-11-24T06:45:36.868Z,70.90
2022-11-24T06:48:05.468Z,62.90
2022-11-24T06:50:34.000Z,65.20
2022-11-24T06:53:02.447Z,66.00
2022-11-24T06:55:30.767Z,68.00
2022-11-24T06:57:59.092Z,73.90
2022-11-24T07:00:29.442Z,67.00
2022-11-24T07:03:01.260Z,66.50
2022-11-24T07:05:30.079Z,64.70
2022-11-24T07:08:01.646Z,60.80
2022-11-24T07:10:29.990Z,63.10
2022-11-24T07:12:58.280Z,63.80
2022-11-24T07:15:28.432Z,68.40
2022-11-24T07:17:56.843Z,64.50
2022-11-24T07:20:27.464Z,64.90
2022-11-24T07:23:27.420Z,60.10
2022-11-24T07:25:56.016Z,63.40
2022-11-24T07:28:24.427Z,59.80
2022-11-24T07:30:58.911Z,68.50
2022-11-24T07:33:36.469Z,61.50
2022-11-24T07:36:06.993Z,68.50
2022-11-24T07:38:35.808Z,71.00
2022-11-24T07:41:06.324Z,73.90
2022-11-24T07:43:36.197Z,72.90
2022-11-24T07:46:06.941Z,80.20
2022-11-24T07:48:35.405Z,80.80
2022-11-24T07:51:04.645Z,74.90
2022-11-24T07:53:36.796Z,83.00
2022-11-24T07:56:06.520Z,81.50
2022-11-24T07:58:37.061Z,76.20
2022-11-24T08:01:17.123Z,69.40
2022-11-24T08:03:46.843Z,72.80
2022-11-24T08:06:24.495Z,70.20
2022-11-24T08:08:53.737Z,76.70
2022-11-24T08:11:22.248Z,78.30
2022-11-24T08:13:50.655Z,68.60
2022-11-24T08:16:20.007Z,70.60
2022-11-24T08:18:56.234Z,81.50
2022-11-24T08:21:25.217Z,70.80
2022-11-24T08:23:57.280Z,77.10
2022-11-24T08:26:26.115Z,73.90
2022-11-24T08:28:57.594Z,84.50
2022-11-24T08:31:32.935Z,74.80
2022-11-24T08:34:04.000Z,71.90
2022-11-24T08:36:33.636Z,85.50
2022-11-24T08:39:02.989Z,82.30
2022-11-24T08:41:31.499Z,81.60
2022-11-24T08:43:59.933Z,78.30
2022-11-24T08:46:30.135Z,82.60
2022-11-24T08:48:58.476Z,76.60
2022-11-24T08:51:27.722Z,78.10
2022-11-24T08:53:58.476Z,83.00
2022-11-24T08:56:29.389Z,76.10
2022-11-24T08:58:58.228Z,84.90
2022-11-24T09:01:27.559Z,79.30
2022-11-24T09:03:56.546Z,78.00
2022-11-24T09:06:27.380Z,78.70
2022-11-24T09:08:55.888Z,76.40
2022-11-24T09:11:25.875Z,80.10
2022-11-24T09:13:55.286Z,78.60
2022-11-24T09:16:26.417Z,86.50
2022-11-24T09:19:04.032Z,79.20
2022-11-24T09:21:38.652Z,77.70
2022-11-24T09:24:07.721Z,87.80
2022-11-24T09:26:40.639Z,78.00
2022-11-24T09:29:12.584Z,80.50
2022-11-24T09:31:41.411Z,68.50
2022-11-24T09:34:13.689Z,68.20
2022-11-24T09:36:42.702Z,68.00
2022-11-24T09:39:11.669Z,65.40
2022-11-24T09:42:05.048Z,66.10
2022-11-24T09:44:55.736Z,82.40
2022-11-24T09:47:55.550Z,74.90
2022-11-24T09:50:27.255Z,74.60
2022-11-24T09:53:16.438Z,68.10
2022-11-24T09:55:48.770Z,80.50
2022-11-24T09:58:35.896Z,73.60
2022-11-24T10:01:20.345Z,75.30
2022-11-24T10:03:51.498Z,76.80
2022-11-24T10:06:25.382Z,76.80
2022-11-24T10:09:12.567Z,74.50
2022-11-24T10:12:15.681Z,75.50
2022-11-24T10:15:02.916Z,69.00
2022-11-24T10:17:52.221Z,71.80
2022-11-24T10:20:38.942Z,71.90
2022-11-24T10:23:26.190Z,77.00
2022-11-24T10:26:00.435Z,68.30
2022-11-24T10:28:41.631Z,63.70
2022-11-24T10:31:31.629Z,68.70
2022-11-24T10:34:10.487Z,58.20
2022-11-24T10:36:57.443Z,65.10
2022-11-24T10:39:37.277Z,62.80
2022-11-24T10:42:13.568Z,59.60
2022-11-24T10:44:43.031Z,61.80
2022-11-24T10:47:22.975Z,66.30
2022-11-24T10:50:05.016Z,60.70
2022-11-24T10:52:41.199Z,62.20
2022-11-24T10:55:10.402Z,65.70
2022-11-24T10:57:40.478Z,63.90
2022-11-24T11:00:20.898Z,66.40
2022-11-24T11:02:51.045Z,54.50
2022-11-24T11:05:42.157Z,64.50
2022-11-24T11:08:14.529Z,63.10
2022-11-24T11:10:44.667Z,54.40
2022-11-24T11:13:30.232Z,48.20
2022-11-24T11:18:33.830Z,44.40
2022-11-24T11:21:03.863Z,47.70
2022-11-24T11:23:38.870Z,45.50
2022-11-24T11:26:38.430Z,44.60
2022-11-24T11:34:56.337Z,48.60
2022-11-24T11:37:29.121Z,56.80
2022-11-24T11:39:58.637Z,52.70
2022-11-24T11:45:34.168Z,64.60
2022-11-24T11:48:03.136Z,65.60
2022-11-24T11:53:51.913Z,74.80
2022-11-24T11:56:27.307Z,79.40
2022-11-24T11:59:06.345Z,91.10
2022-11-24T12:01:45.191Z,87.00
2022-11-24T12:04:35.464Z,91.60
2022-11-24T12:07:25.598Z,90.50
2022-11-24T12:10:20.244Z,99.90
2022-11-24T12:13:10.564Z,89.40
2022-11-24T12:15:41.747Z,84.50
2022-11-24T12:18:57.179Z,85.80
2022-11-24T12:21:42.725Z,90.70
2022-11-24T12:24:31.442Z,90.10
2022-11-24T12:27:26.991Z,92.20
2022-11-24T12:30:11.902Z,89.90
2022-11-24T12:32:41.813Z,97.60
2022-11-24T12:35:37.444Z,103.20
2022-11-24T12:38:22.963Z,102.80
2022-11-24T12:41:33.810Z,106.30
2022-11-24T12:43:56.386Z,104.70
2022-11-24T12:46:35.277Z,109.40
2022-11-24T12:49:41.362Z,114.00
2022-11-24T12:52:38.108Z,139.10
2022-11-24T12:55:14.551Z,118.00
2022-11-24T12:57:54.981Z,116.10
2022-11-24T13:00:28.514Z,107.70
2022-11-24T13:02:57.001Z,93.80
2022-11-24T13:05:50.792Z,106.30
2022-11-24T13:08:19.883Z,101.80
2022-11-24T13:10:57.707Z,106.70
2022-11-24T13:13:48.258Z,112.10
2022-11-24T13:19:15.158Z,97.50
2022-11-24T13:21:45.506Z,110.00
2022-11-24T13:24:18.266Z,102.40
2022-11-24T13:26:54.402Z,107.60
2022-11-24T13:29:28.924Z,99.70
2022-11-24T13:32:03.080Z,84.00
2022-11-24T13:34:40.750Z,83.20
2022-11-24T13:37:35.031Z,65.10
2022-11-24T13:40:13.694Z,60.70
2022-11-24T13:42:57.856Z,54.70
2022-11-24T13:45:50.803Z,52.20
2022-11-24T13:48:19.282Z,52.50
2022-11-24T13:50:50.906Z,54.90
2022-11-24T13:53:29.231Z,42.50
2022-11-24T13:56:24.599Z,38.20
2022-11-24T13:59:16.234Z,35.30
2022-11-24T14:01:46.999Z,28.80
2022-11-24T14:04:32.561Z,35.30
2022-11-24T14:07:09.095Z,33.50
2022-11-24T14:09:45.738Z,31.50
2022-11-24T14:12:16.454Z,29.70
2022-11-24T14:14:47.676Z,28.30
2022-11-24T14:17:28.291Z,30.50
2022-11-24T14:19:58.556Z,29.40
2022-11-24T14:22:43.548Z,27.50
2022-11-24T14:25:30.327Z,31.00
2022-11-24T14:28:00.587Z,27.00
2022-11-24T14:30:29.085Z,27.90
2022-11-24T14:33:02.913Z,26.00
2022-11-24T14:35:34.431Z,27.30
2022-11-24T14:38:05.676Z,31.20
2022-11-24T14:40:51.760Z,24.50
2022-11-24T14:43:27.534Z,28.00
2022-11-24T14:45:59.880Z,25.90
2022-11-24T14:48:38.541Z,21.30
2022-11-24T14:51:26.501Z,26.70
2022-11-24T14:54:17.979Z,26.70
2022-11-24T14:57:41.891Z,23.70
2022-11-24T15:00:13.201Z,22.90
2022-11-24T15:02:52.157Z,27.30
2022-11-24T15:05:24.197Z,30.90
2022-11-24T15:08:03.123Z,29.40
2022-11-24T15:10:36.490Z,30.10
2022-11-24T15:13:16.384Z,27.00
2022-11-24T15:16:01.845Z,31.50
2022-11-24T15:18:45.931Z,30.20
2022-11-24T15:21:19.280Z,28.20
2022-11-24T15:24:15.697Z,34.20
2022-11-24T15:29:13.390Z,38.50
2022-11-24T15:31:45.290Z,31.50
2022-11-24T15:34:17.671Z,35.70
2022-11-24T15:36:45.960Z,37.30
2022-11-24T15:39:14.258Z,39.00
2022-11-24T15:41:42.548Z,33.30
2022-11-24T15:44:10.869Z,37.30
2022-11-24T15:46:39.927Z,38.00
2022-11-24T15:49:08.344Z,38.10
2022-11-24T15:51:42.761Z,34.10
2022-11-24T15:54:17.432Z,35.70
2022-11-24T15:56:45.824Z,37.40
2022-11-24T15:59:20.272Z,36.50
2022-11-24T16:01:50.676Z,28.00
2022-11-24T16:04:19.288Z,40.70
2022-11-24T16:06:49.492Z,39.30
2022-11-24T16:09:17.914Z,45.20
2022-11-24T16:11:46.290Z,42.20
2022-11-24T16:14:14.835Z,42.20
2022-11-24T16:16:43.687Z,40.80
2022-11-24T16:19:12.398Z,38.20
2022-11-24T16:21:40.685Z,33.90
2022-11-24T16:24:09.160Z,33.60
2022-11-24T16:26:37.410Z,36.00
2022-11-24T16:29:05.787Z,33.40
2022-11-24T16:31:34.252Z,35.70
2022-11-24T16:34:02.760Z,43.50
2022-11-24T16:36:31.056Z,47.60
2022-11-24T16:39:00.043Z,48.60
2022-11-24T16:41:28.424Z,45.10
2022-11-24T16:43:56.945Z,41.70
2022-11-24T16:46:25.399Z,37.80
2022-11-24T16:48:57.372Z,39.30
2022-11-24T16:51:29.972Z,40.40
2022-11-24T16:54:02.458Z,40.70
2022-11-24T16:56:31.624Z,36.40
2022-11-24T16:59:00.104Z,36.80
2022-11-24T17:01:30.105Z,37.60
2022-11-24T17:03:59.177Z,35.40
2022-11-24T17:06:27.798Z,38.70
2022-11-24T17:08:56.113Z,40.00
2022-11-24T17:11:26.365Z,40.90
2022-11-24T17:13:57.517Z,42.60
2022-11-24T17:16:26.598Z,49.20
2022-11-24T17:18:55.224Z,47.80
2022-11-24T17:21:26.563Z,50.70
2022-11-24T17:23:59.940Z,48.70
2022-11-24T17:26:28.797Z,62.90
2022-11-24T17:28:57.826Z,56.00
2022-11-24T17:31:35.822Z,50.30
2022-11-24T17:34:05.799Z,47.20
2022-11-24T17:36:35.120Z,47.80
2022-11-24T17:39:05.694Z,40.80
2022-11-24T17:41:34.793Z,42.60
2022-11-24T17:44:03.247Z,47.30
2022-11-24T17:46:31.652Z,70.90
2022-11-24T17:49:00.329Z,52.20
2022-11-24T17:51:28.695Z,56.50
2022-11-24T17:53:57.553Z,53.10
2022-11-24T17:56:27.626Z,45.60
2022-11-24T17:59:01.036Z,45.80
2022-11-24T18:01:31.525Z,46.30
2022-11-24T18:04:00.044Z,48.60
2022-11-24T18:06:28.932Z,45.20
2022-11-24T18:08:58.096Z,47.60
2022-11-24T18:11:32.209Z,51.50
2022-11-24T18:14:03.278Z,50.60
2022-11-24T18:16:33.413Z,47.10
2022-11-24T18:19:11.554Z,46.60
2022-11-24T18:21:41.532Z,46.40
2022-11-24T18:24:21.137Z,45.20
2022-11-24T18:27:09.673Z,46.30
2022-11-24T18:29:38.871Z,51.10
2022-11-24T18:32:07.877Z,48.90
2022-11-24T18:34:39.018Z,42.50
2022-11-24T18:37:09.044Z,43.00
2022-11-24T18:39:37.594Z,47.30
2022-11-24T18:42:05.834Z,41.40
2022-11-24T18:44:36.917Z,37.30
2022-11-24T18:47:05.912Z,43.20
2022-11-24T18:49:34.864Z,32.50
2022-11-24T18:52:05.150Z,34.30
2022-11-24T18:54:34.786Z,32.60
2022-11-24T18:57:04.120Z,33.00
2022-11-24T18:59:33.232Z,32.70
2022-11-24T19:02:01.499Z,34.60
2022-11-24T19:04:32.111Z,36.50
2022-11-24T19:07:00.479Z,34.60
2022-11-24T19:09:31.939Z,34.00
2022-11-24T19:12:06.337Z,37.00
2022-11-24T19:14:35.382Z,40.00
2022-11-24T19:17:05.223Z,40.20
2022-11-24T19:19:34.810Z,37.60
2022-11-24T19:22:03.992Z,41.30
2022-11-24T19:24:33.074Z,44.20
2022-11-24T19:27:03.598Z,46.20
2022-11-24T19:29:32.112Z,43.40
2022-11-24T19:32:01.149Z,42.40
2022-11-24T19:34:29.491Z,45.30
2022-11-24T19:36:58.654Z,46.80
2022-11-24T19:39:33.587Z,45.10
2022-11-24T19:42:03.354Z,52.00
2022-11-24T19:44:31.890Z,47.40
2022-11-24T19:47:02.907Z,54.30
2022-11-24T19:49:34.057Z,50.60
2022-11-24T19:52:04.467Z,51.80
2022-11-24T19:54:35.985Z,52.70
2022-11-24T19:57:08.387Z,46.70
2022-11-24T19:59:37.204Z,48.80
2022-11-24T20:02:07.992Z,49.00
2022-11-24T20:04:40.290Z,47.70
2022-11-24T20:07:17.264Z,45.70
2022-11-24T20:09:50.086Z,45.00
2022-11-24T20:12:19.285Z,48.10
2022-11-24T20:14:50.933Z,46.80
2022-11-24T20:17:20.800Z,48.00
2022-11-24T20:19:52.884Z,47.50
2022-11-24T20:22:24.803Z,50.00
2022-11-24T20:24:53.504Z,48.80
2022-11-24T20:27:22.452Z,55.00
2022-11-24T20:29:54.687Z,55.60
2022-11-24T20:32:23.299Z,56.60
2022-11-24T20:34:53.744Z,57.40
2022-11-24T20:37:23.426Z,57.90
2022-11-24T20:39:52.018Z,48.70
2022-11-24T20:42:22.693Z,43.10
2022-11-24T20:44:50.911Z,47.80
2022-11-24T20:47:21.525Z,45.20
2022-11-24T20:49:53.785Z,44.50
2022-11-24T20:52:23.027Z,49.00
2022-11-24T20:54:52.370Z,43.30
2022-11-24T20:57:21.163Z,48.30
2022-11-24T20:59:51.199Z,48.60
2022-11-24T21:02:20.199Z,48.50
2022-11-24T21:04:49.269Z,62.90
2022-11-24T21:07:20.667Z,77.90
2022-11-24T21:09:49.438Z,99.50
2022-11-24T21:12:21.800Z,94.40
2022-11-24T21:14:50.972Z,126.00
2022-11-24T21:17:19.890Z,109.30
2022-11-24T21:19:51.367Z,119.80
2022-11-24T21:22:20.612Z,114.80
2022-11-24T21:24:49.813Z,80.50
2022-11-24T21:27:18.392Z,63.20
2022-11-24T21:29:46.731Z,52.40
2022-11-24T21:32:15.299Z,48.90
2022-11-24T21:34:48.020Z,53.50
2022-11-24T21:37:20.627Z,56.20
2022-11-24T21:39:49.758Z,49.40
2022-11-24T21:42:19.064Z,48.20
2022-11-24T21:44:47.551Z,57.60
2022-11-24T21:47:19.047Z,55.60
2022-11-24T21:49:51.684Z,55.20
2022-11-24T21:52:20.707Z,55.40
2022-11-24T21:54:49.665Z,56.10
2022-11-24T21:57:20.507Z,53.20
2022-11-24T21:59:52.695Z,56.00
2022-11-24T22:02:21.291Z,54.10
2022-11-24T22:04:55.502Z,51.30
2022-11-24T22:07:24.471Z,53.20
2022-11-24T22:09:53.050Z,53.70
2022-11-24T22:12:21.313Z,51.20
2022-11-24T22:14:49.730Z,55.70
2022-11-24T22:17:17.981Z,56.80
2022-11-24T22:19:46.621Z,55.40
2022-11-24T22:22:15.355Z,59.20
2022-11-24T22:24:45.069Z,57.40
2022-11-24T22:27:16.178Z,60.70
2022-11-24T22:29:48.878Z,64.80
2022-11-24T22:32:21.204Z,64.80
2022-11-24T22:34:50.694Z,65.70
2022-11-24T22:37:18.902Z,65.00
2022-11-24T22:39:47.650Z,82.70
2022-11-24T22:42:15.979Z,76.20
2022-11-24T22:44:44.215Z,78.20
2022-11-24T22:47:12.656Z,75.60
2022-11-24T22:49:41.057Z,75.00
2022-11-24T22:52:11.452Z,80.10
2022-11-24T22:54:40.510Z,71.90
2022-11-24T22:57:08.900Z,74.40
2022-11-24T22:59:37.129Z,66.70
2022-11-24T23:02:05.583Z,67.20
2022-11-24T23:04:34.438Z,62.70
2022-11-24T23:07:02.760Z,58.30
2022-11-24T23:09:31.407Z,62.10
2022-11-24T23:12:00.128Z,62.10
2022-11-24T23:14:29.181Z,63.80
2022-11-24T23:17:01.085Z,63.80
2022-11-24T23:19:31.122Z,67.50
2022-11-24T23:22:08.719Z,69.50
2022-11-24T23:24:41.095Z,62.10
2022-11-24T23:27:10.153Z,64.20
2022-11-24T23:29:41.992Z,71.60
2022-11-24T23:32:16.969Z,64.10
2022-11-24T23:34:46.416Z,68.10
2022-11-24T23:37:15.068Z,67.00
2022-11-24T23:39:46.562Z,69.80
2022-11-24T23:42:15.224Z,70.60
2022-11-24T23:44:43.770Z,72.40
2022-11-24T23:47:11.986Z,74.30
2022-11-24T23:49:40.186Z,72.80
2022-11-24T23:52:08.461Z,80.10
2022-11-24T23:54:36.815Z,79.70
2022-11-24T23:57:05.235Z,75.10
2022-11-24T23:59:33.437Z,72.80
